Terminal Aerodrome Forecast
Issued by NWS Lake Charles, LA

Home | Current Version | Previous Version | Text Only | Print | Product List | Glossary On
Versions: 1 2 3 4 5 6 7 8 9 10 11 12 13 14 15 16 17 18 19 20 21 22 23
593
FTUS44 KLCH 132044 AAA
TAFBPT
TAF AMD
KBPT 132044Z 1321/1418 13011KT P6SM BKN035
     FM140200 12008KT P6SM BKN040
     FM141000 13010KT P6SM BKN015=

USA.gov is the U.S. government's official web portal to all federal, state and local government web resources and services.